Latest Weather Observations for Sydney Olympic Park

IDN60801

Issued at 5:32 am EST Tuesday 26 May 2015 (issued every 30 minutes, with the page automatically refreshed every 10 minutes)

About weather observations | Map of weather stations | Latest weather observations for NSW | Other Formats
Station Details ID: 066212 Name: SYDNEY OLYMPIC PARK AWS (ARCHERY CENTRE) Lat: -33.83 Lon: 151.07 Height: 4.0 m
Data from the previous 72 hours. | See also: Recent months at Sydney Olympic Park
Date/Time
EST
Temp
°C
App
Temp
°C
Dew
Point
Rel
Hum
%
Delta-T
°C
Wind Press
QNH
hPa
Press
MSL
hPa
Rain
since 9 am
mm
Dir
 
Spd
km/h
Gust
km/h
Spd
kts
Gust
kts
26/05:30am 7.1 4.3 6.8 98 0.1 WNW 11 15 6 8 - - 0.2
26/05:00am 6.6 4.4 6.3 98 0.1 WNW 7 11 4 6 - - 0.0
26/04:30am 6.3 5.4 6.0 98 0.1 CALM 0 6 0 3 - - 0.0
26/04:00am 6.7 5.1 6.4 98 0.1 NW 4 7 2 4 - - 0.0
26/03:30am 6.9 5.4 6.8 99 0.0 NW 4 7 2 4 - - 0.0
26/03:00am 7.1 6.4 6.8 98 0.1 CALM 0 0 0 0 - - 0.0
26/02:30am 7.1 6.4 6.8 98 0.1 CALM 0 0 0 0 - - 0.0
26/02:00am 7.3 6.6 7.0 98 0.1 CALM 0 0 0 0 - - 0.0
26/01:30am 7.5 6.9 7.4 99 0.0 CALM 0 0 0 0 - - 0.0
26/01:00am 7.6 7.0 7.3 98 0.1 CALM 0 0 0 0 - - 0.0
26/12:30am 7.6 7.0 7.3 98 0.1 CALM 0 0 0 0 - - 0.0
26/12:00am 7.9 7.3 7.6 98 0.1 CALM 0 0 0 0 - - 0.0
 
Date/Time
EST
Temp
°C
App
Temp
°C
Dew
Point
Rel
Hum
%
Delta-T
°C
Wind Press
QNH
hPa
Press
MSL
hPa
Rain
since 9 am
mm
Dir
 
Spd
km/h
Gust
km/h
Spd
kts
Gust
kts
25/11:30pm 8.1 7.6 7.8 98 0.1 CALM 0 0 0 0 - - 0.0
25/11:00pm 8.2 7.7 7.8 97 0.2 CALM 0 0 0 0 - - 0.0
25/10:30pm 8.5 8.1 8.1 97 0.2 CALM 0 0 0 0 - - 0.0
25/10:00pm 8.8 8.4 8.2 96 0.3 CALM 0 0 0 0 - - 0.0
25/09:30pm 9.1 8.8 8.5 96 0.3 CALM 0 0 0 0 - - 0.0
25/09:00pm 9.4 9.1 8.8 96 0.3 CALM 0 0 0 0 - - 0.0
25/08:30pm 9.8 9.6 9.0 95 0.4 CALM 0 0 0 0 - - 0.0
25/08:00pm 10.2 10.1 9.4 95 0.4 CALM 0 0 0 0 - - 0.0
25/07:30pm 10.6 10.6 9.7 94 0.5 CALM 0 0 0 0 - - 0.0
25/07:00pm 11.2 11.3 10.3 94 0.5 CALM 0 0 0 0 - - 0.0
25/06:30pm 11.6 11.4 10.5 93 0.6 WNW 2 7 1 4 - - 0.0
25/06:00pm 12.2 12.5 10.8 91 0.7 CALM 0 0 0 0 - - 0.0
25/05:30pm 13.0 13.4 11.2 89 0.9 CALM 0 0 0 0 - - 0.0
25/05:00pm 14.0 14.4 11.3 84 1.4 CALM 0 0 0 0 - - 0.0
25/04:30pm 14.9 15.5 12.0 83 1.6 CALM 0 0 0 0 - - 0.0
25/04:00pm 16.2 16.8 12.0 76 2.3 CALM 0 0 0 0 - - 0.0
25/03:30pm 17.2 17.7 11.7 70 3.0 CALM 0 0 0 0 - - 0.0
25/03:00pm 17.4 17.8 11.4 68 3.3 CALM 0 0 0 0 - - 0.0
25/02:30pm 17.7 17.8 10.1 61 4.0 CALM 0 0 0 0 - - 0.0
25/02:00pm 17.7 16.8 9.1 57 4.5 WNW 4 7 2 4 - - 0.0
25/01:30pm 18.5 18.1 9.8 57 4.6 WNW 2 7 1 4 - - 0.0
25/01:00pm 17.3 17.5 10.7 65 3.5 CALM 0 0 0 0 - - 0.0
25/12:30pm 17.3 16.6 10.2 63 3.8 WNW 4 9 2 5 - - 0.0
25/12:00pm 16.3 16.0 10.2 67 3.2 NNW 2 7 1 4 - - 0.0
25/11:30am 15.7 15.1 9.1 65 3.4 WNW 2 7 1 4 - - 0.0
25/11:00am 15.0 13.1 9.1 68 3.0 WNW 9 13 5 7 - - 0.0
25/10:30am 13.9 12.3 8.9 72 2.5 WNW 7 13 4 7 - - 0.0
25/10:00am 13.7 11.8 9.2 74 2.3 NW 9 11 5 6 - - 0.0
25/09:30am 12.4 10.4 8.7 78 1.8 WNW 9 13 5 7 - - 0.0
25/09:00am 11.4 9.9 9.3 87 1.1 NW 7 11 4 6 - - 0.0
25/08:30am 10.3 9.5 9.5 95 0.4 NNW 4 7 2 4 - - 0.0
25/08:00am 9.4 7.9 9.1 98 0.1 NW 7 9 4 5 - - 0.0
25/07:30am 8.5 8.1 8.2 98 0.1 CALM 0 0 0 0 - - 0.0
25/07:00am 8.2 7.3 7.9 98 0.1 NW 2 7 1 4 - - 0.0
25/06:30am 8.3 7.5 8.0 98 0.1 NW 2 9 1 5 - - 0.0
25/06:00am 8.3 6.2 8.2 99 0.0 NW 9 11 5 6 - - 0.0
25/05:30am 7.7 7.1 7.4 98 0.1 CALM 0 0 0 0 - - 0.0
25/05:00am 7.7 7.1 7.3 97 0.2 CALM 0 0 0 0 - - 0.0
25/04:30am 7.9 7.3 7.5 97 0.2 CALM 0 0 0 0 - - 0.0
25/04:00am 8.2 7.0 7.9 98 0.1 NW 4 7 2 4 - - 0.0
25/03:30am 8.1 6.5 7.8 98 0.1 WNW 6 7 3 4 - - 0.0
25/03:00am 8.4 7.6 8.1 98 0.1 WNW 2 7 1 4 - - 0.0
25/02:30am 7.9 6.6 7.6 98 0.1 WNW 4 9 2 5 - - 0.0
25/02:00am 7.7 7.1 7.3 97 0.2 CALM 0 0 0 0 - - 0.0
25/01:30am 8.2 7.7 7.8 97 0.2 CALM 0 0 0 0 - - 0.0
25/01:00am 8.4 7.9 7.8 96 0.3 CALM 0 0 0 0 - - 0.0
25/12:30am 8.7 7.9 8.1 96 0.3 WNW 2 6 1 3 - - 0.0
25/12:00am 8.7 7.9 8.1 96 0.3 NW 2 9 1 5 - - 0.0
 
Date/Time
EST
Temp
°C
App
Temp
°C
Dew
Point
Rel
Hum
%
Delta-T
°C
Wind Press
QNH
hPa
Press
MSL
hPa
Rain
since 9 am
mm
Dir
 
Spd
km/h
Gust
km/h
Spd
kts
Gust
kts
24/11:30pm 8.9 7.4 8.5 97 0.2 WNW 6 9 3 5 - - 0.0
24/11:00pm 8.9 8.2 8.6 98 0.1 WNW 2 7 1 4 - - 0.0
24/10:30pm 8.8 8.4 8.4 97 0.2 CALM 0 0 0 0 - - 0.0
24/10:00pm 8.6 8.2 8.2 97 0.2 CALM 0 0 0 0 - - 0.0
24/09:30pm 8.3 7.7 7.5 95 0.4 CALM 0 0 0 0 - - 0.0
24/09:00pm 8.6 8.1 7.8 95 0.4 CALM 0 0 0 0 - - 0.0
24/08:30pm 8.8 8.3 7.9 94 0.4 CALM 0 0 0 0 - - 0.0
24/08:00pm 9.2 8.8 8.1 93 0.5 CALM 0 0 0 0 - - 0.0
24/07:30pm 9.5 9.1 8.1 91 0.7 CALM 0 0 0 0 - - 0.0
24/07:00pm 10.1 9.8 8.5 90 0.8 CALM 0 0 0 0 - - 0.0
24/06:30pm 10.7 10.5 9.0 89 0.8 CALM 0 0 0 0 - - 0.0
24/06:00pm 11.3 11.1 9.0 86 1.1 CALM 0 0 0 0 - - 0.0
24/05:30pm 12.4 12.3 9.4 82 1.5 CALM 0 0 0 0 - - 0.0
24/05:00pm 13.9 12.4 8.5 70 2.7 SSE 6 7 3 4 - - 0.0
24/04:30pm 16.2 14.5 8.2 59 4.0 SE 7 9 4 5 - - 0.0
24/04:00pm 18.3 17.8 8.0 51 5.3 CALM 0 0 0 0 - - 0.0
24/03:30pm 18.7 17.9 8.1 50 5.4 N 2 7 1 4 - - 0.0
24/03:00pm 18.6 17.4 6.4 45 6.1 W 2 7 1 4 - - 0.0
24/02:30pm 18.6 17.5 7.1 47 5.8 NE 2 7 1 4 - - 0.0
24/02:00pm 18.6 16.9 7.4 48 5.7 E 6 9 3 5 - - 0.0
24/01:30pm 18.1 17.1 7.2 49 5.5 E 2 6 1 3 - - 0.0
24/01:00pm 18.6 16.8 8.0 50 5.4 W 7 11 4 6 - - 0.0
24/12:30pm 18.4 17.3 8.4 52 5.2 NW 4 7 2 4 - - 0.0
24/12:00pm 17.1 15.1 7.2 52 4.9 W 7 11 4 6 - - 0.0
24/11:30am 15.9 13.5 7.1 56 4.3 W 9 13 5 7 - - 0.0
24/11:00am 14.8 12.4 7.1 60 3.8 WSW 9 13 5 7 - - 0.0
24/10:30am 14.1 12.3 8.1 67 3.0 W 7 13 4 7 - - 0.0
24/10:00am 13.0 10.8 7.9 71 2.5 SW 9 13 5 7 - - 0.0
24/09:30am 12.5 10.9 8.6 77 1.9 WSW 7 13 4 7 - - 0.0
24/09:00am 11.5 9.0 8.2 80 1.6 WNW 11 15 6 8 - - 0.0
24/08:30am 10.2 7.7 8.3 88 0.9 WNW 11 17 6 9 - - 0.0
24/08:00am 8.7 6.6 8.3 97 0.2 WNW 9 15 5 8 - - 0.0
24/07:30am 7.5 4.8 7.2 98 0.1 WNW 11 17 6 9 - - 0.0
24/07:00am 7.1 4.3 6.8 98 0.1 NW 11 15 6 8 - - 0.0
24/06:30am 6.7 4.7 6.3 97 0.2 NW 6 7 3 4 - - 0.0
24/06:00am 7.1 5.0 6.7 97 0.2 NW 7 9 4 5 - - 0.0
24/05:30am 7.4 5.0 6.8 96 0.3 WNW 9 13 5 7 - - 0.0
24/05:00am 7.7 5.0 7.3 97 0.2 NW 11 13 6 7 - - 0.0
24/04:30am 7.8 5.1 7.4 97 0.2 WNW 11 15 6 8 - - 0.0
24/04:00am 7.7 5.0 7.3 97 0.2 NW 11 17 6 9 - - 0.0
24/03:30am 7.6 5.2 7.2 97 0.2 WNW 9 11 5 6 - - 0.0
24/03:00am 7.7 5.4 7.4 98 0.1 NW 9 13 5 7 - - 0.0
24/02:30am 7.7 6.0 7.4 98 0.1 NW 6 9 3 5 - - 0.0
24/02:00am 7.7 6.7 7.4 98 0.1 NW 2 6 1 3 - - 0.0
24/01:30am 7.8 5.9 7.5 98 0.1 NW 7 9 4 5 - - 0.0
24/01:00am 7.7 6.3 7.3 97 0.2 WNW 4 7 2 4 - - 0.0
24/12:30am 7.8 7.2 7.4 97 0.2 CALM 0 0 0 0 - - 0.0
24/12:00am 8.0 7.4 7.6 97 0.2 CALM 0 0 0 0 - - 0.0
 
Date/Time
EST
Temp
°C
App
Temp
°C
Dew
Point
Rel
Hum
%
Delta-T
°C
Wind Press
QNH
hPa
Press
MSL
hPa
Rain
since 9 am
mm
Dir
 
Spd
km/h
Gust
km/h
Spd
kts
Gust
kts
23/11:30pm 8.1 6.4 7.5 96 0.3 WNW 6 7 3 4 - - 0.0
23/11:00pm 8.5 6.9 8.1 97 0.2 WNW 6 7 3 4 - - 0.0
23/10:30pm 8.5 6.7 8.1 97 0.2 NW 7 9 4 5 - - 0.0
23/10:00pm 8.4 6.6 7.8 96 0.3 WNW 7 9 4 5 - - 0.0
23/09:30pm 8.3 7.7 7.5 95 0.4 CALM 0 0 0 0 - - 0.0
23/09:00pm 8.5 7.9 7.6 94 0.4 CALM 0 0 0 0 - - 0.0
23/08:30pm 8.9 8.4 8.0 94 0.4 CALM 0 0 0 0 - - 0.0
23/08:00pm 9.3 8.9 8.1 92 0.6 CALM 0 0 0 0 - - 0.0
23/07:30pm 9.7 9.3 8.1 90 0.8 CALM 0 0 0 0 - - 0.0
23/07:00pm 10.4 10.1 8.8 90 0.8 CALM 0 0 0 0 - - 0.0
23/06:30pm 10.7 9.9 8.1 84 1.3 SE 2 9 1 5 - - 0.0
23/06:00pm 12.0 10.1 6.9 71 2.4 SE 6 6 3 3 - - 0.0
23/05:30pm 13.5 11.6 6.8 64 3.2 SSE 6 7 3 4 - - 0.0
23/05:00pm 14.7 12.4 7.3 61 3.6 SE 9 11 5 6 - - 0.0
23/04:30pm 15.7 13.0 7.5 58 4.1 SSE 11 19 6 10 - - 0.0
23/04:00pm 16.6 13.5 7.3 54 4.6 SSE 13 20 7 11 - - 0.0
23/03:30pm 17.0 14.0 7.6 54 4.7 SSE 13 20 7 11 - - 0.0
23/03:00pm 17.6 14.2 7.6 52 5.0 SSE 15 22 8 12 - - 0.0
23/02:30pm 17.9 14.9 7.6 51 5.2 S 13 20 7 11 - - 0.0
23/02:00pm 17.7 14.8 8.0 53 4.9 S 13 26 7 14 - - 0.0
23/01:30pm 17.8 15.0 8.6 55 4.7 SSE 13 20 7 11 - - 0.0
23/01:00pm 17.2 14.0 8.4 56 4.5 S 15 24 8 13 - - 0.0
23/12:30pm 17.9 15.3 7.9 52 5.1 SSW 11 20 6 11 - - 0.0
23/12:00pm 17.4 13.5 8.5 56 4.6 S 19 30 10 16 - - 0.0
23/11:30am 17.0 14.1 8.2 56 4.5 SSW 13 17 7 9 - - 0.0
23/11:00am 16.2 14.1 8.4 60 4.0 SW 9 13 5 7 - - 0.0
23/10:30am 15.8 12.9 8.1 60 3.9 SW 13 20 7 11 - - 0.0
23/10:00am 14.5 11.3 6.8 60 3.7 WSW 13 24 7 13 - - 0.0
23/09:30am 14.0 10.8 6.8 62 3.5 WSW 13 24 7 13 - - 0.0
23/09:00am 12.9 10.0 6.5 65 3.1 WSW 11 20 6 11 - - 28.0
23/08:30am 12.0 8.7 6.3 68 2.7 WSW 13 20 7 11 - - 28.0
23/08:00am 11.8 8.8 6.1 68 2.7 SW 11 19 6 10 - - 28.0
23/07:30am 11.5 9.1 6.8 73 2.2 WSW 9 17 5 9 - - 28.0
23/07:00am 11.2 8.9 7.3 77 1.9 WSW 9 17 5 9 - - 28.0
23/06:30am 10.9 8.6 7.6 80 1.6 WSW 9 17 5 9 - - 28.0
23/06:00am 10.3 8.1 7.9 85 1.2 WSW 9 17 5 9 - - 28.0

Other Formats:

Comma delimited format used in spreadsheet applications
http://www.bom.gov.au/fwo/IDN60801/IDN60801.95765.axf

JavaScript Object Notation format (JSON) in row-major order
http://www.bom.gov.au/fwo/IDN60801/IDN60801.95765.json